createdAt,value
2022-10-24T00:01:48.181Z,1.03
2022-10-24T00:04:16.237Z,1.30
2022-10-24T00:06:44.318Z,1.07
2022-10-24T00:09:12.384Z,1.60
2022-10-24T00:11:43.683Z,1.10
2022-10-24T00:14:12.677Z,1.17
2022-10-24T00:16:40.733Z,1.07
2022-10-24T00:19:10.157Z,1.00
2022-10-24T00:21:38.217Z,0.90
2022-10-24T00:24:07.542Z,1.00
2022-10-24T00:26:36.053Z,1.20
2022-10-24T00:29:05.196Z,1.23
2022-10-24T00:31:33.499Z,0.83
2022-10-24T00:34:01.797Z,0.70
2022-10-24T00:36:31.806Z,1.10
2022-10-24T00:38:59.874Z,1.10
2022-10-24T00:41:33.421Z,0.90
2022-10-24T00:44:22.056Z,0.90
2022-10-24T00:46:55.195Z,1.10
2022-10-24T00:49:29.665Z,1.33
2022-10-24T00:52:05.551Z,1.30
2022-10-24T00:54:34.766Z,1.30
2022-10-24T00:57:10.340Z,1.13
2022-10-24T00:59:42.614Z,1.10
2022-10-24T01:02:11.313Z,1.50
2022-10-24T01:04:39.409Z,1.13
2022-10-24T01:07:25.529Z,1.27
2022-10-24T01:10:33.176Z,1.00
2022-10-24T01:13:16.893Z,0.90
2022-10-24T01:15:52.145Z,1.30
2022-10-24T01:18:29.066Z,1.10
2022-10-24T01:21:11.157Z,0.83
2022-10-24T01:24:12.785Z,1.07
2022-10-24T01:27:26.338Z,1.10
2022-10-24T01:30:04.598Z,1.10
2022-10-24T01:32:40.758Z,0.87
2022-10-24T01:35:23.130Z,1.37
2022-10-24T01:38:00.927Z,1.43
2022-10-24T01:40:37.331Z,1.13
2022-10-24T01:43:10.524Z,0.70
2022-10-24T01:45:43.473Z,1.50
2022-10-24T01:48:18.313Z,1.03
2022-10-24T01:50:50.331Z,1.00
2022-10-24T01:53:21.135Z,0.80
2022-10-24T01:55:52.687Z,0.87
2022-10-24T01:58:20.920Z,1.33
2022-10-24T02:00:53.052Z,1.03
2022-10-24T02:03:27.913Z,0.90
2022-10-24T02:06:01.687Z,1.10
2022-10-24T02:08:35.660Z,1.40
2022-10-24T02:11:06.765Z,1.20
2022-10-24T02:13:45.059Z,1.33
2022-10-24T02:16:19.242Z,1.67
2022-10-24T02:18:48.282Z,1.10
2022-10-24T02:21:24.985Z,1.40
2022-10-24T02:23:58.261Z,0.93
2022-10-24T02:26:35.489Z,1.40
2022-10-24T02:29:09.702Z,1.70
2022-10-24T02:31:43.576Z,1.57
2022-10-24T02:34:13.936Z,1.30
2022-10-24T02:36:43.654Z,1.73
2022-10-24T02:39:13.907Z,1.47
2022-10-24T02:41:45.318Z,1.80
2022-10-24T02:44:16.258Z,1.70
2022-10-24T02:46:47.850Z,1.83
2022-10-24T02:49:17.106Z,1.50
2022-10-24T02:51:47.350Z,1.70
2022-10-24T02:54:15.648Z,1.50
2022-10-24T02:56:48.549Z,1.20
2022-10-24T02:59:16.640Z,1.37
2022-10-24T03:01:46.149Z,1.87
2022-10-24T03:04:14.241Z,1.70
2022-10-24T03:06:42.496Z,1.50
2022-10-24T03:09:10.712Z,1.30
2022-10-24T03:11:38.871Z,1.70
2022-10-24T03:14:07.140Z,1.63
2022-10-24T03:16:35.284Z,2.13
2022-10-24T03:19:04.689Z,1.57
2022-10-24T03:21:32.985Z,1.90
2022-10-24T03:24:01.076Z,1.73
2022-10-24T03:26:29.211Z,1.57
2022-10-24T03:28:57.269Z,1.60
2022-10-24T03:31:25.484Z,2.00
2022-10-24T03:33:53.558Z,1.80
2022-10-24T03:36:22.982Z,1.70
2022-10-24T03:38:51.138Z,2.33
2022-10-24T03:41:19.206Z,1.53
2022-10-24T03:43:47.394Z,1.97
2022-10-24T03:46:15.461Z,2.00
2022-10-24T03:48:43.559Z,1.57
2022-10-24T03:51:11.624Z,2.10
2022-10-24T03:53:40.952Z,1.57
2022-10-24T03:56:09.517Z,2.00
2022-10-24T03:58:37.554Z,1.50
2022-10-24T04:01:06.079Z,1.70
2022-10-24T04:03:34.345Z,2.30
2022-10-24T04:06:02.400Z,1.90
2022-10-24T04:08:30.544Z,1.27
2022-10-24T04:10:59.947Z,1.50
2022-10-24T04:13:28.300Z,1.87
2022-10-24T04:15:56.327Z,1.53
2022-10-24T04:18:24.605Z,2.03
2022-10-24T04:20:52.799Z,2.00
2022-10-24T04:23:20.840Z,1.70
2022-10-24T04:25:48.950Z,1.67
2022-10-24T04:28:18.364Z,2.03
2022-10-24T04:30:46.359Z,1.70
2022-10-24T04:33:14.446Z,1.80
2022-10-24T04:35:49.000Z,1.60
2022-10-24T04:38:17.566Z,2.37
2022-10-24T04:40:49.300Z,1.67
2022-10-24T04:43:19.136Z,1.50
2022-10-24T04:45:47.538Z,2.10
2022-10-24T04:48:16.461Z,1.90
2022-10-24T04:50:47.348Z,2.20
2022-10-24T04:53:16.247Z,2.13
2022-10-24T04:55:45.337Z,1.80
2022-10-24T04:58:13.644Z,2.43
2022-10-24T05:00:46.567Z,1.90
2022-10-24T05:03:14.658Z,1.47
2022-10-24T05:05:42.861Z,1.93
2022-10-24T05:08:10.919Z,1.80
2022-10-24T05:10:39.114Z,2.13
2022-10-24T05:13:07.211Z,1.67
2022-10-24T05:15:35.429Z,1.27
2022-10-24T05:18:05.592Z,1.67
2022-10-24T05:20:33.843Z,2.03
2022-10-24T05:23:02.215Z,1.57
2022-10-24T05:25:30.388Z,1.60
2022-10-24T05:27:58.716Z,1.93
2022-10-24T05:30:26.789Z,1.27
2022-10-24T05:32:54.798Z,1.97
2022-10-24T05:35:24.185Z,1.87
2022-10-24T05:37:52.283Z,1.77
2022-10-24T05:40:20.775Z,1.67
2022-10-24T05:42:49.876Z,2.00
2022-10-24T05:45:17.923Z,1.50
2022-10-24T05:47:46.489Z,1.63
2022-10-24T05:50:15.540Z,1.63
2022-10-24T05:52:47.120Z,1.90
2022-10-24T05:55:17.914Z,1.77
2022-10-24T05:57:47.334Z,1.87
2022-10-24T06:00:18.211Z,1.43
2022-10-24T06:05:21.024Z,2.57
2022-10-24T06:07:50.431Z,1.80
2022-10-24T06:10:18.522Z,1.70
2022-10-24T06:12:46.835Z,1.80
2022-10-24T06:15:15.342Z,2.27
2022-10-24T06:17:43.515Z,1.73
2022-10-24T06:20:12.165Z,1.87
2022-10-24T06:22:42.258Z,1.90
2022-10-24T06:25:12.808Z,1.70
2022-10-24T06:27:42.012Z,1.87
2022-10-24T06:30:11.936Z,1.90
2022-10-24T06:32:43.598Z,1.43
2022-10-24T06:35:14.706Z,2.00
2022-10-24T06:37:45.827Z,1.73
2022-10-24T06:40:17.944Z,1.50
2022-10-24T06:42:46.311Z,1.90
2022-10-24T06:45:15.024Z,2.00
2022-10-24T06:47:43.344Z,1.50
2022-10-24T06:50:11.650Z,1.70
2022-10-24T06:52:39.686Z,1.63
2022-10-24T06:55:08.841Z,2.33
2022-10-24T06:57:38.283Z,2.40
2022-10-24T07:00:08.924Z,2.17
2022-10-24T07:02:37.331Z,2.13
2022-10-24T07:05:08.940Z,1.47
2022-10-24T07:07:36.965Z,2.20
2022-10-24T07:10:05.747Z,1.93
2022-10-24T07:12:34.524Z,2.00
2022-10-24T07:15:04.427Z,1.70
2022-10-24T07:17:32.720Z,1.40
2022-10-24T07:20:00.702Z,1.93
2022-10-24T07:22:30.317Z,2.00
2022-10-24T07:25:00.806Z,1.80
2022-10-24T07:27:29.135Z,1.53
2022-10-24T07:29:58.553Z,1.97
2022-10-24T07:32:29.862Z,2.33
2022-10-24T07:34:57.864Z,2.30
2022-10-24T07:39:58.860Z,1.73
2022-10-24T07:42:26.885Z,1.77
2022-10-24T07:44:54.953Z,1.83
2022-10-24T07:47:23.027Z,1.90
2022-10-24T07:49:52.520Z,1.70
2022-10-24T07:52:20.540Z,1.70
2022-10-24T07:54:48.585Z,1.90
2022-10-24T07:57:16.798Z,2.10
2022-10-24T07:59:44.908Z,2.13
2022-10-24T08:02:14.462Z,1.90
2022-10-24T08:04:42.754Z,1.70
2022-10-24T08:07:14.067Z,2.00
2022-10-24T08:09:44.441Z,2.33
2022-10-24T08:12:12.745Z,1.83
2022-10-24T08:14:42.262Z,1.80
2022-10-24T08:17:11.124Z,1.67
2022-10-24T08:19:44.075Z,1.60
2022-10-24T08:22:14.013Z,1.93
2022-10-24T08:24:43.593Z,2.27
2022-10-24T08:27:12.084Z,2.50
2022-10-24T08:29:40.465Z,2.10
2022-10-24T08:32:08.569Z,1.90
2022-10-24T08:34:38.296Z,2.00
2022-10-24T08:37:06.344Z,1.70
2022-10-24T08:39:35.766Z,1.53
2022-10-24T08:42:08.422Z,2.00
2022-10-24T08:44:40.731Z,1.83
2022-10-24T08:47:17.787Z,1.83
2022-10-24T08:49:51.111Z,1.87
2022-10-24T08:52:33.313Z,2.10
2022-10-24T08:55:25.226Z,1.90
2022-10-24T08:58:02.726Z,1.80
2022-10-24T09:00:36.592Z,2.10
2022-10-24T09:03:11.061Z,1.83
2022-10-24T09:05:44.327Z,2.57
2022-10-24T09:08:25.586Z,2.20
2022-10-24T09:11:01.644Z,1.80
2022-10-24T09:13:31.789Z,1.60
2022-10-24T09:15:59.901Z,1.63
2022-10-24T09:18:34.083Z,2.57
2022-10-24T09:21:03.608Z,1.47
2022-10-24T09:23:34.889Z,2.40
2022-10-24T09:26:07.875Z,1.47
2022-10-24T09:28:40.201Z,2.03
2022-10-24T09:31:18.616Z,1.50
2022-10-24T09:33:50.023Z,1.40
2022-10-24T09:36:24.834Z,2.10
2022-10-24T09:38:53.015Z,1.87
2022-10-24T09:41:25.555Z,1.87
2022-10-24T09:43:57.487Z,2.17
2022-10-24T09:46:28.049Z,3.00
2022-10-24T09:48:59.200Z,2.13
2022-10-24T09:51:33.665Z,1.47
2022-10-24T09:54:26.211Z,1.63
2022-10-24T09:57:05.176Z,1.53
2022-10-24T09:59:40.830Z,1.50
2022-10-24T10:02:24.447Z,1.33
2022-10-24T10:05:21.534Z,1.67
2022-10-24T10:07:51.323Z,1.70
2022-10-24T10:10:31.371Z,1.60
2022-10-24T10:13:18.908Z,1.27
2022-10-24T10:15:50.333Z,1.60
2022-10-24T10:18:35.879Z,1.13
2022-10-24T10:21:11.793Z,1.77
2022-10-24T10:23:44.022Z,2.00
2022-10-24T10:26:27.227Z,1.90
2022-10-24T10:29:06.852Z,1.83
2022-10-24T10:31:43.765Z,1.43
2022-10-24T10:34:23.939Z,1.83
2022-10-24T10:37:24.586Z,1.50
2022-10-24T10:40:30.300Z,1.30
2022-10-24T10:43:25.565Z,1.20
2022-10-24T10:46:11.988Z,1.27
2022-10-24T10:49:00.309Z,1.33
2022-10-24T10:51:42.979Z,1.70
2022-10-24T10:54:34.025Z,1.70
2022-10-24T10:57:08.891Z,1.20
2022-10-24T10:59:53.034Z,1.07
2022-10-24T11:02:55.778Z,1.50
2022-10-24T11:05:36.999Z,1.20
2022-10-24T11:08:24.111Z,1.50
2022-10-24T11:10:58.823Z,1.50
2022-10-24T11:13:34.246Z,1.47
2022-10-24T11:16:07.218Z,1.50
2022-10-24T11:18:40.996Z,1.50
2022-10-24T11:21:11.710Z,1.23
2022-10-24T11:23:45.874Z,1.33
2022-10-24T11:26:20.874Z,1.37
2022-10-24T11:28:58.022Z,1.50
2022-10-24T11:31:33.487Z,1.67
2022-10-24T11:34:12.421Z,1.50
2022-10-24T11:36:50.812Z,1.30
2022-10-24T11:39:27.365Z,1.17
2022-10-24T11:45:02.374Z,1.30
2022-10-24T11:47:56.086Z,1.03
2022-10-24T11:50:34.898Z,1.43
2022-10-24T11:53:16.403Z,1.40
2022-10-24T11:55:51.479Z,1.13
2022-10-24T11:58:24.389Z,1.30
2022-10-24T12:01:26.091Z,1.13
2022-10-24T12:05:10.899Z,1.30
2022-10-24T12:08:14.160Z,1.03
2022-10-24T12:11:06.610Z,1.10
2022-10-24T12:14:08.741Z,1.13
2022-10-24T12:16:53.541Z,1.10
2022-10-24T12:19:23.486Z,2.00
2022-10-24T12:21:55.929Z,2.20
2022-10-24T12:24:32.895Z,2.60
2022-10-24T12:27:04.256Z,1.80
2022-10-24T12:29:34.986Z,1.80
2022-10-24T12:32:31.301Z,1.70
2022-10-24T12:35:28.966Z,1.37
2022-10-24T12:37:50.086Z,1.30
2022-10-24T12:40:56.471Z,1.37
2022-10-24T12:43:34.416Z,1.30
2022-10-24T12:46:24.344Z,1.30
2022-10-24T12:49:26.394Z,1.30
2022-10-24T12:51:54.665Z,0.93
2022-10-24T12:54:41.918Z,1.13
2022-10-24T12:57:28.859Z,1.50
2022-10-24T12:59:59.472Z,1.27
2022-10-24T13:02:49.249Z,1.17
2022-10-24T13:05:55.458Z,1.30
2022-10-24T13:08:45.888Z,1.97
2022-10-24T13:11:34.199Z,1.63
2022-10-24T13:14:28.838Z,1.07
2022-10-24T13:17:07.440Z,1.43
2022-10-24T13:19:36.761Z,1.47
2022-10-24T13:22:06.266Z,1.10
2022-10-24T13:24:36.978Z,1.67
2022-10-24T13:27:33.120Z,0.90
2022-10-24T13:30:33.783Z,0.93
2022-10-24T13:33:42.853Z,0.90
2022-10-24T13:36:27.068Z,1.13
2022-10-24T13:39:01.660Z,0.93
2022-10-24T13:41:34.336Z,2.40
2022-10-24T13:44:08.653Z,1.63
2022-10-24T13:46:46.845Z,0.83
2022-10-24T13:49:24.636Z,0.97
2022-10-24T13:51:58.004Z,0.90
2022-10-24T13:54:31.167Z,1.07
2022-10-24T13:57:01.995Z,1.20
2022-10-24T13:59:33.383Z,1.00
2022-10-24T14:02:06.296Z,1.20
2022-10-24T14:04:36.074Z,0.90
2022-10-24T14:07:06.821Z,0.90
2022-10-24T14:09:42.881Z,0.90
2022-10-24T14:12:20.510Z,1.57
2022-10-24T14:14:51.204Z,0.90
2022-10-24T14:17:25.906Z,1.13
2022-10-24T14:19:58.075Z,1.27
2022-10-24T14:22:30.618Z,1.33
2022-10-24T14:25:00.005Z,1.80
2022-10-24T14:27:28.317Z,2.20
2022-10-24T14:30:01.326Z,1.97
2022-10-24T14:32:32.055Z,1.73
2022-10-24T14:37:38.323Z,1.50
2022-10-24T14:40:16.806Z,1.30
2022-10-24T14:42:47.250Z,1.13
2022-10-24T14:45:27.362Z,1.33
2022-10-24T14:47:57.731Z,0.90
2022-10-24T14:50:41.840Z,1.20
2022-10-24T14:53:25.024Z,1.30
2022-10-24T14:55:57.834Z,1.27
2022-10-24T14:58:28.901Z,0.97
2022-10-24T15:00:59.033Z,0.90
2022-10-24T15:03:29.025Z,1.37
2022-10-24T15:06:07.417Z,1.83
2022-10-24T15:08:39.706Z,1.43
2022-10-24T15:11:40.317Z,1.30
2022-10-24T15:14:34.232Z,1.37
2022-10-24T15:17:27.106Z,1.40
2022-10-24T15:20:01.567Z,1.13
2022-10-24T15:22:32.856Z,2.80
2022-10-24T15:25:05.288Z,1.80
2022-10-24T15:27:42.272Z,1.30
2022-10-24T15:30:16.318Z,1.50
2022-10-24T15:32:45.903Z,1.23
2022-10-24T15:35:15.529Z,1.63
2022-10-24T15:37:54.756Z,1.67
2022-10-24T15:40:26.101Z,1.73
2022-10-24T15:42:55.761Z,1.20
2022-10-24T15:45:24.278Z,1.33
2022-10-24T15:47:53.828Z,1.43
2022-10-24T15:50:24.865Z,1.33
2022-10-24T15:52:55.714Z,1.27
2022-10-24T15:55:26.681Z,1.10
2022-10-24T15:57:59.796Z,1.27
2022-10-24T16:00:28.157Z,1.70
2022-10-24T16:03:04.325Z,1.30
2022-10-24T16:05:40.749Z,0.93
2022-10-24T16:08:14.608Z,1.00
2022-10-24T16:10:43.846Z,1.10
2022-10-24T16:13:15.440Z,1.10
2022-10-24T16:15:44.156Z,1.00
2022-10-24T16:18:13.106Z,1.03
2022-10-24T16:20:42.155Z,1.23
2022-10-24T16:23:12.347Z,1.10
2022-10-24T16:25:40.450Z,1.77
2022-10-24T16:28:08.848Z,2.50
2022-10-24T16:30:41.103Z,2.13
2022-10-24T16:33:09.470Z,1.70
2022-10-24T16:35:39.969Z,1.57
2022-10-24T16:38:10.224Z,1.30
2022-10-24T16:43:18.274Z,5.07
2022-10-24T16:45:58.053Z,10.73
2022-10-24T16:48:26.488Z,3.17
2022-10-24T16:50:55.206Z,2.20
2022-10-24T16:53:24.102Z,1.40
2022-10-24T16:55:55.544Z,1.40
2022-10-24T16:58:23.887Z,1.30
2022-10-24T17:01:02.434Z,1.47
2022-10-24T17:03:30.563Z,1.30
2022-10-24T17:05:58.767Z,1.30
2022-10-24T17:08:27.605Z,1.40
2022-10-24T17:10:56.182Z,1.30
2022-10-24T17:13:25.511Z,1.40
2022-10-24T17:15:54.933Z,4.73
2022-10-24T17:18:23.610Z,5.47
2022-10-24T17:20:58.233Z,3.17
2022-10-24T17:23:27.741Z,2.27
2022-10-24T17:25:56.714Z,1.90
2022-10-24T17:28:26.844Z,1.80
2022-10-24T17:30:59.365Z,1.70
2022-10-24T17:33:27.842Z,1.73
2022-10-24T17:35:58.400Z,1.93
2022-10-24T17:38:40.441Z,1.80
2022-10-24T17:41:20.396Z,1.70
2022-10-24T17:43:49.284Z,1.73
2022-10-24T17:46:19.601Z,1.77
2022-10-24T17:48:47.731Z,1.70
2022-10-24T17:51:19.017Z,1.50
2022-10-24T17:53:47.123Z,1.43
2022-10-24T17:56:16.239Z,2.50
2022-10-24T17:58:46.595Z,1.33
2022-10-24T18:01:14.748Z,1.33
2022-10-24T18:03:44.726Z,1.73
2022-10-24T18:06:13.446Z,2.00
2022-10-24T18:08:41.747Z,2.70
2022-10-24T18:11:11.819Z,1.03
2022-10-24T18:13:40.664Z,1.93
2022-10-24T18:16:09.987Z,1.57
2022-10-24T18:18:39.915Z,0.80
2022-10-24T18:21:11.266Z,0.90
2022-10-24T18:23:39.976Z,0.73
2022-10-24T18:26:08.929Z,0.70
2022-10-24T18:28:41.725Z,0.77
2022-10-24T18:31:11.917Z,0.77
2022-10-24T18:33:41.439Z,0.50
2022-10-24T18:36:13.275Z,1.00
2022-10-24T18:38:43.217Z,0.50
2022-10-24T18:41:34.905Z,0.90
2022-10-24T18:44:14.155Z,1.10
2022-10-24T18:46:43.114Z,0.90
2022-10-24T18:49:12.306Z,1.73
2022-10-24T18:51:50.299Z,1.50
2022-10-24T18:54:20.470Z,1.87
2022-10-24T18:56:49.357Z,2.00
2022-10-24T18:59:20.790Z,1.50
2022-10-24T19:02:02.930Z,1.60
2022-10-24T19:04:32.818Z,2.03
2022-10-24T19:07:04.912Z,1.00
2022-10-24T19:09:33.833Z,1.17
2022-10-24T19:12:02.529Z,1.17
2022-10-24T19:14:31.033Z,1.20
2022-10-24T19:17:03.040Z,1.20
2022-10-24T19:19:35.731Z,1.10
2022-10-24T19:22:05.250Z,0.67
2022-10-24T19:24:33.540Z,1.10
2022-10-24T19:27:01.748Z,0.70
2022-10-24T19:29:30.218Z,0.63
2022-10-24T19:31:58.616Z,0.90
2022-10-24T19:34:28.274Z,0.77
2022-10-24T19:36:57.398Z,0.90
2022-10-24T19:39:29.202Z,0.90
2022-10-24T19:42:00.995Z,0.90
2022-10-24T19:44:29.193Z,0.90
2022-10-24T19:46:57.211Z,0.93
2022-10-24T19:49:25.361Z,0.90
2022-10-24T19:51:54.084Z,0.87
2022-10-24T19:54:22.216Z,1.03
2022-10-24T19:56:54.265Z,0.83
2022-10-24T19:59:22.811Z,1.10
2022-10-24T20:01:50.950Z,0.80
2022-10-24T20:04:19.149Z,1.10
2022-10-24T20:06:47.986Z,0.80
2022-10-24T20:09:16.122Z,0.80
2022-10-24T20:11:44.159Z,0.80
2022-10-24T20:14:13.811Z,0.70
2022-10-24T20:16:42.316Z,0.93
2022-10-24T20:19:10.338Z,0.90
2022-10-24T20:21:38.405Z,0.70
2022-10-24T20:24:07.746Z,0.77
2022-10-24T20:26:36.261Z,0.73
2022-10-24T20:29:05.084Z,0.70
2022-10-24T20:31:38.128Z,0.80
2022-10-24T20:34:09.745Z,0.63
2022-10-24T20:36:39.088Z,0.63
2022-10-24T20:39:08.910Z,0.50
2022-10-24T20:41:38.147Z,0.57
2022-10-24T20:44:07.455Z,0.63
2022-10-24T20:46:37.391Z,0.60
2022-10-24T20:49:05.999Z,0.70
2022-10-24T20:51:34.083Z,0.70
2022-10-24T20:54:02.135Z,0.40
2022-10-24T20:56:30.243Z,0.80
2022-10-24T20:58:58.284Z,0.60
2022-10-24T21:01:29.082Z,0.90
2022-10-24T21:03:59.525Z,0.57
2022-10-24T21:06:30.110Z,0.50
2022-10-24T21:09:00.957Z,0.60
2022-10-24T21:11:31.633Z,0.40
2022-10-24T21:14:02.651Z,0.63
2022-10-24T21:16:31.348Z,0.93
2022-10-24T21:19:01.184Z,0.60
2022-10-24T21:21:30.054Z,0.53
2022-10-24T21:24:04.493Z,0.40
2022-10-24T21:26:35.236Z,0.70
2022-10-24T21:29:09.237Z,0.43
2022-10-24T21:31:50.358Z,0.70
2022-10-24T21:34:20.744Z,0.60
2022-10-24T21:36:49.175Z,1.17
2022-10-24T21:39:17.954Z,0.90
2022-10-24T21:41:46.347Z,0.77
2022-10-24T21:44:15.019Z,0.70
2022-10-24T21:46:43.410Z,0.60
2022-10-24T21:49:11.934Z,0.50
2022-10-24T21:51:42.762Z,0.50
2022-10-24T21:54:18.877Z,0.80
2022-10-24T21:56:47.568Z,0.57
2022-10-24T21:59:18.637Z,0.70
2022-10-24T22:01:48.716Z,0.60
2022-10-24T22:04:18.295Z,0.60
2022-10-24T22:06:47.905Z,0.93
2022-10-24T22:09:18.920Z,0.80
2022-10-24T22:11:47.467Z,0.90
2022-10-24T22:14:17.601Z,0.97
2022-10-24T22:16:45.756Z,0.67
2022-10-24T22:19:14.889Z,0.90
2022-10-24T22:21:46.331Z,0.70
2022-10-24T22:24:17.935Z,0.87
2022-10-24T22:26:46.343Z,0.57
2022-10-24T22:29:17.022Z,0.53
2022-10-24T22:31:46.149Z,0.53
2022-10-24T22:34:18.372Z,0.80
2022-10-24T22:37:12.835Z,0.70
2022-10-24T22:39:43.483Z,0.90
2022-10-24T22:42:14.912Z,0.50
2022-10-24T22:44:46.924Z,0.57
2022-10-24T22:48:02.064Z,0.73
2022-10-24T22:50:52.566Z,0.70
2022-10-24T22:53:24.582Z,0.53
2022-10-24T22:56:11.436Z,1.13
2022-10-24T22:58:41.569Z,0.40
2022-10-24T23:01:21.219Z,0.70
2022-10-24T23:04:12.476Z,0.80
2022-10-24T23:06:47.547Z,0.73
2022-10-24T23:09:15.676Z,0.80
2022-10-24T23:11:45.934Z,0.80
2022-10-24T23:16:57.400Z,0.77
2022-10-24T23:19:28.447Z,0.70
2022-10-24T23:22:00.346Z,0.87
2022-10-24T23:24:29.403Z,0.50
2022-10-24T23:27:24.641Z,0.53
2022-10-24T23:29:53.550Z,1.20
2022-10-24T23:32:24.996Z,0.97
2022-10-24T23:34:54.962Z,1.00
2022-10-24T23:37:34.547Z,0.73
2022-10-24T23:40:13.061Z,0.90
2022-10-24T23:42:43.897Z,0.70
2022-10-24T23:45:14.595Z,0.87
2022-10-24T23:48:17.153Z,0.77
2022-10-24T23:50:55.201Z,1.00
2022-10-24T23:53:40.981Z,0.70
2022-10-24T23:56:12.773Z,0.97
2022-10-24T23:58:42.568Z,0.80
